Time;durP1;ratioP1;P1;durP2;ratioP2;P2;SDS_P1;SDS_P2;PMS_P1;PMS_P2;Temp;Humidity;BMP_temperature;BMP_pressure;BME280_temperature;BME280_humidity;BME280_pressure;Samples;Min_cycle;Max_cycle;Signal;HPM_P1;HPM_P2
2023/05/28 00:01:17;;;;;;;14.90;6.00;;;13.50;99.90;;;;;;5090363;28;20981;-73
2023/05/28 00:03:44;;;;;;;12.00;5.23;;;13.50;99.90;;;;;;5090998;28;20526;-73
2023/05/28 00:06:11;;;;;;;16.07;7.17;;;13.40;99.90;;;;;;5091105;28;20477;-73
2023/05/28 00:08:38;;;;;;;16.50;8.70;;;13.40;99.90;;;;;;5090867;28;20460;-72
2023/05/28 00:11:05;;;;;;;13.40;7.20;;;13.40;99.90;;;;;;5090418;28;20982;-72
2023/05/28 00:13:32;;;;;;;12.90;7.00;;;13.40;99.90;;;;;;5090952;28;20510;-73
2023/05/28 00:15:59;;;;;;;14.33;7.47;;;13.30;99.90;;;;;;5090661;28;20455;-73
2023/05/28 00:18:28;;;;;;;11.33;6.17;;;13.30;99.90;;;;;;5090831;28;20931;-72
2023/05/28 00:20:54;;;;;;;12.93;6.00;;;13.20;99.90;;;;;;5090714;28;20482;-73
2023/05/28 00:23:21;;;;;;;10.00;6.20;;;13.20;99.90;;;;;;5090611;28;20454;-72
2023/05/28 00:25:48;;;;;;;20.07;6.23;;;13.20;99.90;;;;;;5090339;28;20543;-72
2023/05/28 00:28:14;;;;;;;11.57;6.13;;;13.20;99.90;;;;;;5089927;28;20459;-73
2023/05/28 00:30:41;;;;;;;13.03;5.87;;;13.20;99.90;;;;;;5090620;28;20503;-72
2023/05/28 00:33:08;;;;;;;14.70;6.40;;;13.10;99.90;;;;;;5090388;28;20478;-72
2023/05/28 00:35:36;;;;;;;10.30;5.93;;;13.10;99.90;;;;;;5090426;28;20454;-72
2023/05/28 00:38:02;;;;;;;11.93;5.70;;;13.10;99.90;;;;;;5090060;28;20451;-72
2023/05/28 00:40:29;;;;;;;12.70;5.87;;;13.00;99.90;;;;;;5090524;28;20447;-73
2023/05/28 00:42:56;;;;;;;7.83;5.93;;;13.00;99.90;;;;;;5090215;28;20460;-72
2023/05/28 00:45:22;;;;;;;11.13;5.60;;;13.00;99.90;;;;;;5090591;28;20454;-72
2023/05/28 00:47:50;;;;;;;16.20;6.80;;;12.90;99.90;;;;;;5089940;28;20492;-73
2023/05/28 00:50:18;;;;;;;13.10;7.00;;;12.90;99.90;;;;;;5089946;28;20468;-73
2023/05/28 00:52:50;;;;;;;11.73;6.20;;;12.90;99.90;;;;;;5090755;28;20611;-73
2023/05/28 00:55:17;;;;;;;15.23;7.53;;;12.80;99.90;;;;;;5090642;28;20479;-72
2023/05/28 00:57:45;;;;;;;10.37;6.10;;;12.70;99.90;;;;;;5090448;28;20451;-73
2023/05/28 01:00:13;;;;;;;12.50;6.20;;;12.70;99.90;;;;;;5090082;28;20457;-72
2023/05/28 01:02:40;;;;;;;12.67;6.47;;;12.60;99.90;;;;;;5089901;28;21049;-72
2023/05/28 01:05:08;;;;;;;12.07;6.23;;;12.60;99.90;;;;;;5089543;28;20860;-72
2023/05/28 01:07:35;;;;;;;16.97;7.47;;;12.60;99.90;;;;;;5090303;28;20467;-72
2023/05/28 01:10:03;;;;;;;11.40;6.70;;;12.50;99.90;;;;;;5089760;28;20490;-72
2023/05/28 01:12:31;;;;;;;10.43;6.20;;;12.50;99.90;;;;;;5091423;28;20467;-72
2023/05/28 01:14:58;;;;;;;16.20;6.03;;;12.40;99.90;;;;;;5094017;28;20438;-72
2023/05/28 01:17:26;;;;;;;10.27;5.97;;;12.50;99.90;;;;;;5094122;28;20459;-72
2023/05/28 01:19:53;;;;;;;12.07;6.30;;;12.50;99.90;;;;;;5093697;28;20443;-72
2023/05/28 01:22:27;;;;;;;13.00;6.30;;;12.40;99.90;;;;;;5094154;28;20467;-72
2023/05/28 01:24:55;;;;;;;12.30;6.13;;;12.40;99.90;;;;;;5093754;28;20448;-72
2023/05/28 01:27:22;;;;;;;11.70;6.00;;;12.40;99.90;;;;;;5094109;28;20505;-72
2023/05/28 01:29:49;;;;;;;13.93;6.17;;;12.30;99.90;;;;;;5093778;28;20808;-72
2023/05/28 01:32:15;;;;;;;11.53;5.63;;;12.30;99.90;;;;;;5094158;28;20471;-72
2023/05/28 01:34:42;;;;;;;8.80;6.43;;;12.30;99.90;;;;;;5093762;28;20700;-71
2023/05/28 01:37:11;;;;;;;15.37;5.50;;;12.30;99.90;;;;;;5093295;28;20459;-72
2023/05/28 01:39:42;;;;;;;11.47;5.77;;;12.30;99.90;;;;;;5093497;28;20897;-72
2023/05/28 01:42:11;;;;;;;11.50;6.37;;;12.30;99.90;;;;;;5093334;28;20466;-72
2023/05/28 01:44:38;;;;;;;11.20;6.87;;;12.30;99.90;;;;;;5094106;28;20576;-72
2023/05/28 01:47:05;;;;;;;13.47;6.10;;;12.30;99.90;;;;;;5093109;28;20983;-72
2023/05/28 01:49:32;;;;;;;10.97;5.67;;;12.20;99.90;;;;;;5093554;28;20497;-72
2023/05/28 01:51:59;;;;;;;8.17;5.33;;;12.20;99.90;;;;;;5091629;28;20513;-72
2023/05/28 01:54:25;;;;;;;12.23;6.97;;;12.20;99.90;;;;;;5092241;28;20482;-72
2023/05/28 01:56:52;;;;;;;10.47;6.07;;;12.10;99.90;;;;;;5093346;28;20504;-72
2023/05/28 01:59:20;;;;;;;14.37;6.50;;;12.10;99.90;;;;;;5093382;28;20447;-72
2023/05/28 02:01:47;;;;;;;12.83;6.40;;;12.10;99.90;;;;;;5093472;28;20476;-72
2023/05/28 02:04:14;;;;;;;10.80;6.50;;;12.10;99.90;;;;;;5092571;28;21003;-72
2023/05/28 02:06:45;;;;;;;13.83;6.77;;;12.00;99.90;;;;;;5093271;28;20454;-72
2023/05/28 02:09:12;;;;;;;9.93;6.50;;;12.00;99.90;;;;;;5092871;28;20512;-72
2023/05/28 02:11:38;;;;;;;13.33;6.60;;;12.00;99.90;;;;;;5093176;28;20466;-72
2023/05/28 02:14:05;;;;;;;9.10;6.27;;;12.00;99.90;;;;;;5092910;28;20547;-72
2023/05/28 02:16:35;;;;;;;14.57;6.23;;;12.00;99.90;;;;;;5093244;28;20446;-72
2023/05/28 02:19:03;;;;;;;17.00;6.73;;;11.90;99.90;;;;;;5092220;28;20459;-72
2023/05/28 02:21:29;;;;;;;13.17;6.80;;;11.90;99.90;;;;;;5092914;28;21085;-72
2023/05/28 02:23:56;;;;;;;15.97;6.90;;;11.90;99.90;;;;;;5092206;28;20450;-72
2023/05/28 02:26:23;;;;;;;11.37;5.87;;;11.90;99.90;;;;;;5092767;28;20458;-72
2023/05/28 02:28:49;;;;;;;15.13;6.30;;;11.80;99.90;;;;;;5092610;28;20934;-72
2023/05/28 02:31:16;;;;;;;12.37;7.10;;;11.80;99.90;;;;;;5092128;28;20471;-72
2023/05/28 02:33:44;;;;;;;15.60;6.80;;;11.80;99.90;;;;;;5092322;28;20524;-72
2023/05/28 02:36:11;;;;;;;16.57;7.53;;;11.80;99.90;;;;;;5092753;28;20458;-72
2023/05/28 02:38:38;;;;;;;17.23;6.83;;;11.80;99.90;;;;;;5092866;28;20457;-72
2023/05/28 02:41:05;;;;;;;17.10;7.13;;;11.70;99.90;;;;;;5092236;28;20467;-72
2023/05/28 02:43:32;;;;;;;13.37;6.33;;;11.70;99.90;;;;;;5092655;28;20977;-72
2023/05/28 02:45:59;;;;;;;10.50;6.40;;;11.70;99.90;;;;;;5091896;28;20462;-72
2023/05/28 02:48:26;;;;;;;11.00;6.40;;;11.70;99.90;;;;;;5092269;28;20735;-72
2023/05/28 02:50:54;;;;;;;14.47;6.97;;;11.70;99.90;;;;;;5092319;28;21080;-72
2023/05/28 02:53:22;;;;;;;14.33;7.20;;;11.70;99.90;;;;;;5084403;28;20444;-72
2023/05/28 02:55:49;;;;;;;13.93;7.33;;;11.60;99.90;;;;;;5092274;28;21003;-72
2023/05/28 02:58:16;;;;;;;11.70;6.40;;;11.60;99.90;;;;;;5092102;28;20447;-72
2023/05/28 03:00:43;;;;;;;9.50;6.57;;;11.60;99.90;;;;;;5092341;28;20496;-72
2023/05/28 03:03:09;;;;;;;13.63;7.57;;;11.50;99.90;;;;;;5091390;28;20974;-72
2023/05/28 03:05:36;;;;;;;12.40;6.50;;;11.40;99.90;;;;;;5092002;28;20478;-72
2023/05/28 03:08:05;;;;;;;14.80;6.23;;;11.40;99.90;;;;;;5092090;28;20450;-72
2023/05/28 03:10:31;;;;;;;11.43;6.80;;;11.40;99.90;;;;;;5092211;28;20451;-72
2023/05/28 03:12:58;;;;;;;13.73;6.13;;;11.30;99.90;;;;;;5091502;28;20504;-72
2023/05/28 03:15:26;;;;;;;13.00;7.00;;;11.30;99.90;;;;;;5092284;28;20539;-72
2023/05/28 03:17:53;;;;;;;14.23;5.80;;;11.20;99.90;;;;;;5092158;28;20455;-72
2023/05/28 03:20:19;;;;;;;10.70;6.30;;;11.30;99.90;;;;;;5091439;28;20455;-72
2023/05/28 03:22:47;;;;;;;10.00;5.93;;;11.20;99.90;;;;;;5091794;28;20467;-72
2023/05/28 03:25:15;;;;;;;13.43;6.33;;;11.20;99.90;;;;;;5091774;28;20468;-72
2023/05/28 03:27:42;;;;;;;18.63;7.47;;;11.20;99.90;;;;;;5091584;28;20451;-72
2023/05/28 03:30:09;;;;;;;7.70;5.80;;;11.20;99.90;;;;;;5091611;28;20456;-72
2023/05/28 03:32:36;;;;;;;16.50;6.77;;;11.20;99.90;;;;;;5091676;28;20479;-72
2023/05/28 03:35:03;;;;;;;10.33;6.83;;;11.20;99.90;;;;;;5090576;28;20538;-72
2023/05/28 03:37:29;;;;;;;16.03;6.80;;;11.20;99.90;;;;;;5091383;28;20480;-72
2023/05/28 03:39:56;;;;;;;11.40;6.80;;;11.20;99.90;;;;;;5091095;28;20484;-72
2023/05/28 03:42:24;;;;;;;13.37;6.60;;;11.20;99.90;;;;;;5091536;28;20470;-72
2023/05/28 03:44:51;;;;;;;12.53;6.10;;;11.20;99.90;;;;;;5091278;28;21194;-72
2023/05/28 03:47:17;;;;;;;9.90;6.23;;;11.20;99.90;;;;;;5090683;28;20455;-72
2023/05/28 03:49:44;;;;;;;10.00;6.23;;;11.20;99.90;;;;;;5090975;28;20557;-71
2023/05/28 03:52:11;;;;;;;14.23;6.30;;;11.20;99.90;;;;;;5090527;28;20474;-72
2023/05/28 03:54:37;;;;;;;10.93;6.13;;;11.20;99.90;;;;;;5091224;28;20478;-72
2023/05/28 03:57:05;;;;;;;9.70;5.90;;;11.20;99.90;;;;;;5091283;28;20463;-72
2023/05/28 03:59:33;;;;;;;7.70;6.10;;;11.20;99.90;;;;;;5090998;28;20931;-72
2023/05/28 04:02:00;;;;;;;9.33;6.00;;;11.20;99.90;;;;;;5091180;28;20511;-72
2023/05/28 04:04:26;;;;;;;15.93;6.50;;;11.30;99.90;;;;;;5091090;28;20451;-72
2023/05/28 04:06:53;;;;;;;11.17;6.57;;;11.20;99.90;;;;;;5090957;28;21126;-72
2023/05/28 04:09:20;;;;;;;13.30;6.40;;;11.20;99.90;;;;;;5090176;28;20951;-72
2023/05/28 04:11:47;;;;;;;12.93;6.70;;;11.20;99.90;;;;;;5090391;28;20500;-72
2023/05/28 04:14:13;;;;;;;13.87;6.90;;;11.30;99.90;;;;;;5090765;28;20494;-73
2023/05/28 04:16:41;;;;;;;9.43;6.97;;;11.20;99.90;;;;;;5090752;28;20442;-72
2023/05/28 04:19:08;;;;;;;17.40;6.40;;;11.30;99.90;;;;;;5090412;28;20443;-72
2023/05/28 04:21:35;;;;;;;11.50;6.80;;;11.20;99.90;;;;;;5090792;28;20467;-72
2023/05/28 04:24:01;;;;;;;11.23;6.00;;;11.20;99.90;;;;;;5090667;28;20454;-72
2023/05/28 04:26:28;;;;;;;14.03;7.10;;;11.20;99.90;;;;;;5090294;28;20450;-72
2023/05/28 04:28:54;;;;;;;11.67;6.63;;;11.20;99.90;;;;;;5090459;28;20439;-72
2023/05/28 04:31:21;;;;;;;13.73;6.70;;;11.30;99.90;;;;;;5090351;28;20471;-73
2023/05/28 04:33:49;;;;;;;10.30;6.30;;;11.30;99.90;;;;;;5090473;28;20890;-72
2023/05/28 04:36:16;;;;;;;23.50;6.93;;;11.30;99.90;;;;;;5090397;28;20477;-72
2023/05/28 04:38:43;;;;;;;15.30;6.30;;;11.30;99.90;;;;;;5090841;28;20486;-72
2023/05/28 04:41:13;;;;;;;10.97;6.80;;;11.40;99.90;;;;;;5090212;28;20470;-72
2023/05/28 04:43:41;;;;;;;11.37;7.00;;;11.40;99.90;;;;;;5090519;28;20497;-72
2023/05/28 04:46:08;;;;;;;11.63;6.90;;;11.50;99.90;;;;;;5089556;28;20908;-72
2023/05/28 04:48:35;;;;;;;12.50;7.13;;;11.60;99.90;;;;;;5090370;28;20461;-72
2023/05/28 04:51:03;;;;;;;12.30;6.47;;;11.60;99.90;;;;;;5089771;28;20467;-72
2023/05/28 04:53:31;;;;;;;10.20;6.20;;;11.70;99.90;;;;;;5090589;28;20457;-73
2023/05/28 04:55:57;;;;;;;13.27;7.07;;;11.80;99.90;;;;;;5090175;28;20494;-73
2023/05/28 04:58:24;;;;;;;16.60;6.43;;;11.80;99.90;;;;;;5090211;28;20454;-72
2023/05/28 05:00:51;;;;;;;10.67;6.50;;;11.90;99.90;;;;;;5089997;28;20481;-72
2023/05/28 05:03:17;;;;;;;11.47;7.13;;;11.90;99.90;;;;;;5090413;28;20451;-72
2023/05/28 05:05:44;;;;;;;16.60;6.73;;;11.90;99.90;;;;;;5090274;28;20512;-72
2023/05/28 05:08:13;;;;;;;14.10;6.70;;;12.00;99.90;;;;;;5090232;28;20942;-72
2023/05/28 05:10:39;;;;;;;19.00;6.73;;;12.10;99.90;;;;;;5089844;28;20455;-72
2023/05/28 05:13:06;;;;;;;14.43;7.10;;;12.20;99.90;;;;;;5089843;28;21044;-72
2023/05/28 05:15:33;;;;;;;11.10;6.70;;;12.30;99.90;;;;;;5089746;28;20491;-72
2023/05/28 05:18:00;;;;;;;11.40;5.90;;;12.40;99.90;;;;;;5090197;28;20909;-73
2023/05/28 05:20:27;;;;;;;11.57;6.50;;;12.50;99.90;;;;;;5088595;28;20511;-73
2023/05/28 05:22:54;;;;;;;13.30;6.37;;;12.60;99.90;;;;;;5090172;28;20470;-72
2023/05/28 05:25:22;;;;;;;15.37;6.40;;;12.70;99.90;;;;;;5089875;28;20447;-72
2023/05/28 05:27:51;;;;;;;13.13;6.37;;;12.80;99.90;;;;;;5090262;28;20443;-72
2023/05/28 05:30:17;;;;;;;13.43;6.93;;;12.80;99.90;;;;;;5089412;28;20545;-72
2023/05/28 05:32:44;;;;;;;14.20;7.00;;;13.00;99.90;;;;;;5089395;28;20544;-72
2023/05/28 05:35:11;;;;;;;11.23;6.40;;;13.10;99.90;;;;;;5089696;28;20535;-72
2023/05/28 05:37:38;;;;;;;15.30;7.10;;;13.20;99.90;;;;;;5089740;28;20531;-71
2023/05/28 05:40:06;;;;;;;9.13;5.90;;;13.30;99.90;;;;;;5089051;28;20444;-71
2023/05/28 05:42:34;;;;;;;12.97;6.70;;;13.50;99.90;;;;;;5089876;28;20653;-70
2023/05/28 05:45:00;;;;;;;9.50;5.77;;;13.60;99.90;;;;;;5089540;28;20469;-70
2023/05/28 05:47:27;;;;;;;15.43;6.80;;;13.70;99.90;;;;;;5089269;28;20818;-70
2023/05/28 05:49:54;;;;;;;19.30;6.70;;;13.80;99.90;;;;;;5089457;28;20455;-70
2023/05/28 05:52:20;;;;;;;9.13;6.10;;;13.90;99.90;;;;;;5089445;28;20529;-71
2023/05/28 05:54:47;;;;;;;10.23;6.00;;;14.10;99.90;;;;;;5089923;28;20843;-71
2023/05/28 05:57:14;;;;;;;11.57;6.53;;;14.20;99.90;;;;;;5089531;28;20515;-71
2023/05/28 05:59:42;;;;;;;15.40;6.20;;;14.40;99.90;;;;;;5092575;28;20542;-70
2023/05/28 06:02:08;;;;;;;13.30;5.80;;;14.50;99.90;;;;;;5092884;28;20482;-71
2023/05/28 06:04:35;;;;;;;12.47;6.50;;;14.60;99.90;;;;;;5093043;28;20511;-71
2023/05/28 06:07:04;;;;;;;22.83;5.97;;;14.80;99.90;;;;;;5093383;28;20459;-70
2023/05/28 06:09:30;;;;;;;10.60;5.80;;;15.00;99.90;;;;;;5085060;28;20460;-70
2023/05/28 06:11:57;;;;;;;8.73;5.93;;;15.20;99.90;;;;;;5093099;28;20513;-70
2023/05/28 06:14:24;;;;;;;9.50;5.77;;;15.20;99.90;;;;;;5092506;28;20509;-70
2023/05/28 06:16:52;;;;;;;13.67;5.77;;;15.30;99.90;;;;;;5093096;28;20528;-71
2023/05/28 06:19:18;;;;;;;16.33;6.40;;;15.40;99.90;;;;;;5092558;28;20456;-70
2023/05/28 06:21:45;;;;;;;12.00;6.37;;;15.60;99.90;;;;;;5093001;28;20482;-70
2023/05/28 06:24:12;;;;;;;10.37;5.77;;;15.80;99.90;;;;;;5092860;28;20824;-70
2023/05/28 06:26:38;;;;;;;14.57;7.00;;;16.00;99.90;;;;;;5093046;28;20534;-70
2023/05/28 06:29:07;;;;;;;12.40;6.50;;;16.10;99.90;;;;;;5092642;28;20483;-70
2023/05/28 06:31:34;;;;;;;12.07;6.20;;;16.10;99.90;;;;;;5092760;28;20470;-70
2023/05/28 06:34:02;;;;;;;14.63;6.37;;;16.20;99.90;;;;;;5092398;28;20869;-69
2023/05/28 06:36:29;;;;;;;9.90;5.30;;;16.30;99.90;;;;;;5092045;28;20509;-70
2023/05/28 06:38:55;;;;;;;11.77;6.07;;;16.40;99.90;;;;;;5092790;28;20454;-70
2023/05/28 06:41:22;;;;;;;8.33;5.90;;;16.60;99.90;;;;;;5092348;28;20476;-69
2023/05/28 06:43:49;;;;;;;12.40;6.27;;;16.80;99.90;;;;;;5092807;28;20430;-70
2023/05/28 06:46:15;;;;;;;8.57;5.10;;;16.90;99.90;;;;;;5091883;28;20450;-71
2023/05/28 06:48:42;;;;;;;13.57;5.63;;;17.10;99.90;;;;;;5092326;28;20512;-71
2023/05/28 06:51:10;;;;;;;9.37;5.60;;;17.20;99.90;;;;;;5091907;28;20478;-70
2023/05/28 06:53:38;;;;;;;9.40;5.50;;;17.40;99.90;;;;;;5092635;28;20458;-70
2023/05/28 06:56:06;;;;;;;13.10;5.90;;;17.60;99.90;;;;;;5092170;28;20528;-70
2023/05/28 06:58:32;;;;;;;10.53;5.40;;;17.70;99.90;;;;;;5083522;28;20871;-71
2023/05/28 07:01:01;;;;;;;12.13;5.23;;;17.90;99.90;;;;;;5092136;28;20450;-69
2023/05/28 07:03:28;;;;;;;8.70;5.30;;;18.10;99.90;;;;;;5089446;28;20459;-71
2023/05/28 07:05:54;;;;;;;12.20;5.67;;;18.30;99.90;;;;;;5092070;28;20839;-70
2023/05/28 07:08:22;;;;;;;12.70;6.40;;;18.40;99.90;;;;;;5091659;28;20467;-71
2023/05/28 07:10:49;;;;;;;10.23;6.17;;;18.40;99.90;;;;;;5091957;28;21008;-71
2023/05/28 07:13:16;;;;;;;10.50;5.47;;;18.60;99.90;;;;;;5090757;28;20447;-69
2023/05/28 07:15:42;;;;;;;10.90;5.80;;;18.70;99.90;;;;;;5092157;28;20479;-69
2023/05/28 07:18:09;;;;;;;9.77;5.07;;;18.70;99.90;;;;;;5091793;28;20499;-70
2023/05/28 07:20:36;;;;;;;10.20;5.60;;;18.80;99.90;;;;;;5091847;28;20435;-69
2023/05/28 07:23:03;;;;;;;8.10;6.00;;;19.00;99.90;;;;;;5091842;28;20494;-68
2023/05/28 07:25:31;;;;;;;10.33;4.83;;;19.10;99.90;;;;;;5091565;28;20513;-70
2023/05/28 07:27:58;;;;;;;8.57;5.53;;;19.20;99.90;;;;;;5091915;28;20421;-68
2023/05/28 07:30:25;;;;;;;7.13;4.50;;;19.50;99.90;;;;;;5091251;28;20421;-69
2023/05/28 07:32:51;;;;;;;8.53;5.60;;;19.70;99.90;;;;;;5091382;28;20475;-69
2023/05/28 07:35:18;;;;;;;12.80;5.90;;;19.80;99.90;;;;;;5091071;28;20990;-69
2023/05/28 07:37:45;;;;;;;7.30;5.23;;;19.90;99.90;;;;;;5091632;28;20421;-69
2023/05/28 07:40:12;;;;;;;14.67;5.40;;;20.00;99.90;;;;;;5090911;28;20545;-69
2023/05/28 07:42:40;;;;;;;10.40;5.40;;;20.20;99.90;;;;;;5091438;28;20474;-70
2023/05/28 07:45:07;;;;;;;8.00;4.63;;;20.50;99.90;;;;;;5091552;28;20447;-69
2023/05/28 07:47:34;;;;;;;10.20;4.90;;;20.60;99.90;;;;;;5082718;28;20455;-69
2023/05/28 07:50:00;;;;;;;12.30;5.13;;;20.80;99.90;;;;;;5090499;28;20962;-69
2023/05/28 07:52:29;;;;;;;7.00;4.60;;;20.90;99.90;;;;;;5090825;28;20566;-69
2023/05/28 07:54:56;;;;;;;9.23;4.93;;;21.00;99.90;;;;;;5091445;28;20533;-70
2023/05/28 07:57:24;;;;;;;13.00;5.33;;;21.20;99.90;;;;;;5091250;28;20528;-69
2023/05/28 07:59:52;;;;;;;10.90;4.80;;;21.30;99.90;;;;;;5091038;28;20956;-69
2023/05/28 08:02:18;;;;;;;7.57;5.27;;;21.40;99.90;;;;;;5091143;28;20482;-68
2023/05/28 08:04:45;;;;;;;8.17;4.87;;;21.60;99.90;;;;;;5090779;28;20459;-69
2023/05/28 08:07:12;;;;;;;7.70;5.07;;;21.80;99.90;;;;;;5090799;28;20496;-69
2023/05/28 08:09:41;;;;;;;9.27;4.80;;;22.00;99.90;;;;;;5090108;28;20549;-69
2023/05/28 08:12:07;;;;;;;5.80;4.33;;;22.10;99.90;;;;;;5090964;28;20509;-69
2023/05/28 08:14:34;;;;;;;8.50;4.90;;;22.20;99.90;;;;;;5090783;28;20450;-68
2023/05/28 08:17:03;;;;;;;8.60;5.13;;;22.40;99.90;;;;;;5090239;28;20482;-68
2023/05/28 08:19:29;;;;;;;6.40;4.67;;;22.60;99.90;;;;;;5090280;28;20455;-68
2023/05/28 08:21:56;;;;;;;8.17;5.37;;;22.50;99.90;;;;;;5090363;28;20474;-68
2023/05/28 08:24:22;;;;;;;8.97;4.53;;;22.30;99.90;;;;;;5090747;28;20481;-68
2023/05/28 08:26:49;;;;;;;7.07;4.63;;;22.20;99.90;;;;;;5090195;28;20447;-68
2023/05/28 08:29:16;;;;;;;10.47;4.93;;;22.20;99.90;;;;;;5085287;28;20455;-70
2023/05/28 08:31:42;;;;;;;7.40;5.07;;;22.30;99.90;;;;;;5090089;28;20463;-69
2023/05/28 08:34:11;;;;;;;9.07;5.40;;;22.50;99.90;;;;;;5090478;28;20469;-68
2023/05/28 08:36:37;;;;;;;10.23;4.60;;;22.80;99.90;;;;;;5082436;28;20489;-69
2023/05/28 08:39:04;;;;;;;8.15;4.40;;;23.10;99.90;;;;;;5088745;28;20436;-69
2023/05/28 08:41:31;;;;;;;8.63;4.43;;;23.20;99.90;;;;;;5085117;28;20315;-70
2023/05/28 08:43:58;;;;;;;14.53;5.60;;;23.30;99.90;;;;;;5090071;28;20455;-69
2023/05/28 08:46:25;;;;;;;11.47;4.97;;;23.50;99.90;;;;;;5088581;28;20447;-70
2023/05/28 08:48:52;;;;;;;7.23;5.00;;;23.90;99.90;;;;;;5088800;28;20462;-70
2023/05/28 08:51:24;;;;;;;13.17;5.27;;;23.90;99.90;;;;;;5088789;28;20486;-70
2023/05/28 08:53:52;;;;;;;8.33;4.53;;;24.10;99.90;;;;;;5090209;28;20557;-70
2023/05/28 08:56:20;;;;;;;7.10;4.63;;;24.10;99.90;;;;;;5089953;28;20520;-70
2023/05/28 08:58:47;;;;;;;7.80;4.67;;;23.90;99.90;;;;;;5089045;28;20550;-70
2023/05/28 09:01:15;;;;;;;8.33;4.20;;;24.00;99.90;;;;;;5088795;28;20532;-69
2023/05/28 09:03:42;;;;;;;9.87;5.40;;;24.00;99.90;;;;;;5087542;28;20463;-71
2023/05/28 09:06:09;;;;;;;12.40;4.50;;;24.10;99.90;;;;;;5087826;28;20458;-70
2023/05/28 09:08:37;;;;;;;10.17;5.43;;;24.00;99.90;;;;;;5088873;28;20459;-70
2023/05/28 09:11:10;;;;;;;9.93;5.10;;;24.00;99.90;;;;;;5085572;28;20482;-70
2023/05/28 09:13:41;;;;;;;10.03;4.80;;;23.90;99.90;;;;;;5088576;28;20453;-70
2023/05/28 09:16:08;;;;;;;10.80;5.10;;;24.10;99.90;;;;;;5090316;28;20539;-70
2023/05/28 09:18:35;;;;;;;10.40;4.97;;;24.30;99.90;;;;;;5090412;28;20511;-71
2023/05/28 09:21:01;;;;;;;8.60;4.80;;;24.30;99.90;;;;;;5090524;28;20495;-70
2023/05/28 09:23:29;;;;;;;9.70;4.67;;;24.40;99.90;;;;;;5090682;28;20455;-71
2023/05/28 09:26:00;;;;;;;8.27;4.30;;;24.50;99.90;;;;;;5090028;28;20449;-72
2023/05/28 09:28:27;;;;;;;14.17;4.90;;;24.70;99.90;;;;;;5087409;28;20528;-71
2023/05/28 09:30:55;;;;;;;6.93;4.53;;;24.70;99.90;;;;;;5089252;28;20442;-71
2023/05/28 09:33:21;;;;;;;8.47;4.90;;;24.90;99.90;;;;;;5090468;28;20451;-70
2023/05/28 09:35:59;;;;;;;8.90;4.57;;;25.00;99.90;;;;;;5093526;28;20501;-70
2023/05/28 09:38:27;;;;;;;8.37;4.40;;;25.20;99.90;;;;;;5091617;28;20493;-69
2023/05/28 09:40:55;;;;;;;9.80;5.47;;;25.50;99.90;;;;;;5093370;28;20821;-69
2023/05/28 09:43:29;;;;;;;9.30;6.00;;;25.70;99.90;;;;;;5093434;28;20542;-70
2023/05/28 09:46:07;;;;;;;12.90;4.93;;;26.00;99.90;;;;;;5092649;28;20449;-70
2023/05/28 09:48:33;;;;;;;10.00;5.13;;;26.00;99.90;;;;;;5093045;28;21334;-71
2023/05/28 09:51:03;;;;;;;9.37;4.87;;;26.00;99.90;;;;;;5092822;28;20463;-71
2023/05/28 09:53:33;;;;;;;9.10;5.50;;;26.10;99.90;;;;;;5093199;28;20511;-72
2023/05/28 09:56:01;;;;;;;9.40;4.87;;;26.20;99.90;;;;;;5092205;28;20569;-71
2023/05/28 09:58:34;;;;;;;7.87;5.07;;;26.40;99.90;;;;;;5091968;28;20537;-70
2023/05/28 10:01:07;;;;;;;9.20;4.70;;;26.50;99.90;;;;;;5092822;28;20465;-70
2023/05/28 10:03:38;;;;;;;9.67;4.50;;;26.80;99.90;;;;;;5092318;28;21247;-71
2023/05/28 10:06:14;;;;;;;10.07;4.90;;;27.10;99.90;;;;;;5090963;28;20442;-70
2023/05/28 10:08:42;;;;;;;7.10;4.03;;;26.90;99.90;;;;;;5088357;28;20458;-70
2023/05/28 10:11:12;;;;;;;10.43;4.67;;;26.70;99.90;;;;;;5092436;28;20470;-70
2023/05/28 10:13:41;;;;;;;11.37;5.03;;;26.70;99.90;;;;;;5091405;28;21031;-70
2023/05/28 10:16:08;;;;;;;9.47;4.80;;;26.90;99.90;;;;;;5091347;28;20578;-70
2023/05/28 10:18:36;;;;;;;9.83;4.67;;;27.00;99.90;;;;;;5091123;28;20463;-70
2023/05/28 10:21:04;;;;;;;11.53;4.73;;;27.00;99.90;;;;;;5091815;28;20453;-71
2023/05/28 10:23:31;;;;;;;8.70;4.07;;;27.00;99.90;;;;;;5090590;28;20454;-71
2023/05/28 10:25:58;;;;;;;15.93;5.47;;;27.30;99.90;;;;;;5091531;28;20504;-71
2023/05/28 10:28:25;;;;;;;10.23;4.90;;;27.50;99.90;;;;;;5091163;28;20996;-70
2023/05/28 10:31:04;;;;;;;12.37;5.50;;;27.30;99.90;;;;;;5092391;28;21024;-70
2023/05/28 10:33:31;;;;;;;13.27;5.90;;;26.90;99.90;;;;;;5092388;28;20801;-71
2023/05/28 10:36:01;;;;;;;10.47;5.10;;;27.10;99.90;;;;;;5092395;28;21054;-70
2023/05/28 10:38:29;;;;;;;11.50;4.80;;;27.10;99.90;;;;;;5092037;28;20460;-71
2023/05/28 10:41:03;;;;;;;6.33;3.70;;;27.10;99.90;;;;;;5092190;28;20459;-70
2023/05/28 10:43:45;;;;;;;10.53;4.30;;;27.30;99.90;;;;;;5091996;28;20848;-70
2023/05/28 10:46:15;;;;;;;9.00;4.87;;;27.60;99.90;;;;;;5091925;28;20853;-70
2023/05/28 10:49:02;;;;;;;13.57;3.90;;;27.90;99.90;;;;;;5092242;28;21005;-70
2023/05/28 10:51:43;;;;;;;9.40;5.20;;;28.20;99.90;;;;;;5091911;28;20521;-71
2023/05/28 10:54:15;;;;;;;9.47;4.77;;;28.10;99.90;;;;;;5092188;28;20859;-70
2023/05/28 10:57:07;;;;;;;10.07;6.20;;;28.20;99.90;;;;;;5084212;28;20535;-70
2023/05/28 10:59:44;;;;;;;11.47;4.90;;;28.30;99.40;;;;;;5090785;28;20500;-71
2023/05/28 11:02:12;;;;;;;10.27;4.33;;;28.40;99.30;;;;;;5087898;28;20981;-71
2023/05/28 11:04:40;;;;;;;12.33;4.60;;;28.40;97.50;;;;;;5091499;28;20451;-70
2023/05/28 11:07:07;;;;;;;13.67;7.40;;;28.20;97.80;;;;;;5091061;28;20450;-71
2023/05/28 11:09:35;;;;;;;7.27;4.70;;;28.30;96.30;;;;;;5091475;28;20447;-71
2023/05/28 11:12:02;;;;;;;5.73;4.33;;;28.20;95.30;;;;;;5091940;28;20516;-70
2023/05/28 11:14:36;;;;;;;8.30;4.73;;;28.20;94.70;;;;;;5091690;28;20453;-70
2023/05/28 11:17:08;;;;;;;8.87;4.90;;;28.10;94.50;;;;;;5091748;28;20481;-70
2023/05/28 11:19:44;;;;;;;11.13;6.20;;;28.00;95.80;;;;;;5091170;28;20450;-70
2023/05/28 11:22:11;;;;;;;14.30;6.03;;;27.70;94.10;;;;;;5090370;28;20482;-70
2023/05/28 11:25:04;;;;;;;7.50;4.57;;;27.80;95.70;;;;;;5091429;28;20554;-71
2023/05/28 11:27:34;;;;;;;12.00;5.50;;;28.00;95.90;;;;;;5091042;28;20451;-70
2023/05/28 11:30:02;;;;;;;5.20;4.70;;;28.30;97.90;;;;;;5090868;28;20534;-70
2023/05/28 11:32:32;;;;;;;9.17;4.87;;;28.60;94.80;;;;;;5091556;28;20563;-71
2023/05/28 11:35:00;;;;;;;8.17;4.40;;;28.60;94.30;;;;;;5091403;28;20460;-70
2023/05/28 11:37:28;;;;;;;4.70;3.87;;;28.90;92.90;;;;;;5090983;28;20494;-70
2023/05/28 11:39:56;;;;;;;5.47;4.57;;;28.90;90.80;;;;;;5091054;28;20962;-71
2023/05/28 11:42:24;;;;;;;6.10;4.10;;;28.70;90.90;;;;;;5090829;28;20478;-70
2023/05/28 11:44:52;;;;;;;8.03;6.10;;;28.40;90.30;;;;;;5091194;28;20446;-70
2023/05/28 11:47:19;;;;;;;12.90;8.13;;;28.40;91.50;;;;;;5091161;28;20447;-70
2023/05/28 11:49:47;;;;;;;12.83;4.57;;;28.50;91.90;;;;;;5086598;28;20447;-70
2023/05/28 11:52:17;;;;;;;4.50;3.70;;;28.70;92.50;;;;;;5090563;28;20481;-70
2023/05/28 11:54:46;;;;;;;7.33;4.33;;;29.00;91.20;;;;;;5090788;28;20505;-70
2023/05/28 11:57:21;;;;;;;7.27;3.90;;;29.40;91.10;;;;;;5089390;28;20486;-71
2023/05/28 11:59:55;;;;;;;5.23;4.17;;;29.50;91.30;;;;;;5083284;28;20469;-70
2023/05/28 12:02:23;;;;;;;10.23;4.20;;;29.20;91.50;;;;;;5090622;28;20474;-71
2023/05/28 12:04:57;;;;;;;7.50;4.40;;;29.20;90.60;;;;;;5090831;28;20438;-70
2023/05/28 12:07:29;;;;;;;5.40;4.40;;;29.20;90.30;;;;;;5090719;28;20446;-71
2023/05/28 12:10:06;;;;;;;7.53;4.83;;;29.30;91.40;;;;;;5090598;28;20448;-70
2023/05/28 12:12:33;;;;;;;8.00;4.20;;;29.40;90.50;;;;;;5090747;28;20458;-70
2023/05/28 12:15:02;;;;;;;8.57;4.60;;;29.50;90.90;;;;;;5090457;28;20528;-70
2023/05/28 12:17:36;;;;;;;8.53;4.37;;;29.60;90.20;;;;;;5088136;28;20482;-70
2023/05/28 12:20:03;;;;;;;8.27;3.90;;;29.70;90.00;;;;;;5090696;28;20455;-70
2023/05/28 12:22:31;;;;;;;8.17;4.10;;;29.90;86.50;;;;;;5090608;28;20470;-70
2023/05/28 12:24:58;;;;;;;5.20;3.67;;;30.00;83.70;;;;;;5090518;28;20455;-70
2023/05/28 12:27:25;;;;;;;5.70;3.80;;;29.90;85.50;;;;;;5089493;28;20451;-71
2023/05/28 12:29:51;;;;;;;9.73;4.27;;;29.70;90.80;;;;;;5090001;28;20454;-70
2023/05/28 12:32:19;;;;;;;4.80;3.63;;;29.70;85.90;;;;;;5090716;28;20528;-71
2023/05/28 12:34:45;;;;;;;7.93;4.13;;;29.80;85.10;;;;;;5090121;28;20961;-70
2023/05/28 12:37:12;;;;;;;6.93;4.23;;;29.60;89.40;;;;;;5090418;28;20535;-71
2023/05/28 12:39:40;;;;;;;5.93;4.30;;;29.50;84.80;;;;;;5090121;28;20449;-70
2023/05/28 12:42:07;;;;;;;6.80;4.17;;;29.40;88.90;;;;;;5090186;28;20470;-70
2023/05/28 12:44:34;;;;;;;6.20;4.37;;;29.60;85.60;;;;;;5090531;28;20508;-71